Gode, Ethiopia
Current Conditions -  °F | °C
As of 9:55 PM on Thursday 27 Nov 2014 (Local Time) from KQRH Reporting Station
Few Clouds Few Clouds  
Wind Chill: 81°   Ceiling: Unl
Heat Index: 85°   Visibility: 6mi
Dew Point: 71°   Wind: 5mph
Humidity: 72%   Direction: 130°SE
Pressure: 29.96"   Gusts: NA
Location:  5.9°N, 43.57°E
Report Text: KQRH 271855Z AUTO 13004KT 9999 FEW019 27/22 A2996 RMK AO2 SLP143 T02730218
Loading
Personal Weather Stations






























Interactive Weather Map New forecast layout! Learn more

10-Day Weather Forecast

Advertisements
Track Severe Weather on mobile